Time;durP1;ratioP1;P1;durP2;ratioP2;P2;SDS_P1;SDS_P2;PMS_P1;PMS_P2;Temp;Humidity;BMP_temperature;BMP_pressure;BME280_temperature;BME280_humidity;BME280_pressure;Samples;Min_cycle;Max_cycle;Signal;HPM_P1;HPM_P2
2022/09/15 00:02:16;;;;;;;24.92;17.35;;;;;;;18.72;57.78;97855.84;5049964;28;20041;-75
2022/09/15 00:04:42;;;;;;;28.33;15.90;;;;;;;18.74;57.86;97856.41;5033047;28;20044;-75
2022/09/15 00:07:07;;;;;;;27.50;16.35;;;;;;;18.67;57.77;97844.19;5033168;28;20041;-74
2022/09/15 00:09:34;;;;;;;31.55;17.10;;;;;;;18.70;57.58;97849.09;5033416;28;20382;-74
2022/09/15 00:12:00;;;;;;;28.58;17.25;;;;;;;18.61;57.83;97851.41;5033415;28;20056;-75
2022/09/15 00:14:26;;;;;;;36.10;18.25;;;;;;;18.63;58.17;97843.91;5048708;28;20066;-75
2022/09/15 00:16:52;;;;;;;29.58;17.63;;;;;;;18.62;57.65;97844.97;5014542;28;20420;-75
2022/09/15 00:19:18;;;;;;;34.80;18.10;;;;;;;18.63;57.96;97851.16;5014540;28;20041;-75
2022/09/15 00:21:43;;;;;;;28.33;18.38;;;;;;;18.78;57.36;97849.44;5031454;28;20045;-75
2022/09/15 00:24:09;;;;;;;25.58;17.52;;;;;;;18.80;57.82;97846.50;5031249;28;20059;-75
2022/09/15 00:26:36;;;;;;;33.58;18.92;;;;;;;18.79;57.56;97845.69;5047631;28;20136;-76
2022/09/15 00:29:02;;;;;;;31.63;17.63;;;;;;;18.87;57.70;97836.34;5013989;28;20090;-75
2022/09/15 00:31:29;;;;;;;32.28;18.73;;;;;;;18.93;57.53;97854.97;5014971;28;20041;-75
2022/09/15 00:33:57;;;;;;;30.40;17.17;;;;;;;18.98;57.46;97854.22;5049510;28;20048;-75
2022/09/15 00:36:23;;;;;;;14.68;8.63;;;;;;;18.78;56.85;97838.69;5048599;28;20045;-75
2022/09/15 00:38:49;;;;;;;9.27;6.47;;;;;;;18.48;57.15;97848.31;5033106;28;20059;-76
2022/09/15 00:41:17;;;;;;;5.90;4.03;;;;;;;18.43;56.92;97811.44;5016482;28;20429;-76
2022/09/15 00:43:48;;;;;;;5.65;2.70;;;;;;;18.42;56.28;97859.00;5032950;28;20059;-76
2022/09/15 00:46:16;;;;;;;2.47;2.03;;;;;;;18.14;56.62;97842.22;5032818;28;20513;-76
2022/09/15 00:48:48;;;;;;;2.03;1.58;;;;;;;18.14;56.38;97831.47;5049632;28;20037;-76
2022/09/15 00:51:16;;;;;;;1.85;1.70;;;;;;;18.27;56.17;97852.56;5032806;28;20045;-76
2022/09/15 00:53:43;;;;;;;2.28;1.83;;;;;;;18.17;55.94;97853.25;5052755;28;20424;-75
2022/09/15 00:56:11;;;;;;;1.67;1.58;;;;;;;18.21;55.97;97840.16;5025649;28;20098;-75
2022/09/15 00:58:43;;;;;;;1.67;1.58;;;;;;;18.27;56.01;97850.72;5037102;28;20451;-75
2022/09/15 01:01:10;;;;;;;2.05;1.80;;;;;;;18.08;55.92;97849.38;5034598;28;20063;-75
2022/09/15 01:03:36;;;;;;;2.65;1.77;;;;;;;17.79;56.02;97845.22;5016312;28;20136;-75
2022/09/15 01:06:09;;;;;;;2.22;2.00;;;;;;;18.06;56.14;97858.75;5016059;28;20129;-75
2022/09/15 01:08:40;;;;;;;1.98;1.88;;;;;;;17.85;55.65;97827.31;5049201;28;20118;-74
2022/09/15 01:11:05;;;;;;;;;;;;;;;17.98;55.75;97854.63;5032798;28;20045;-75
2022/09/15 01:13:32;;;;;;;4.28;1.92;;;;;;;17.62;56.13;97849.00;5036511;28;20400;-74
2022/09/15 01:16:17;;;;;;;2.22;2.00;;;;;;;17.87;55.80;97846.66;5020160;28;20040;-76
2022/09/15 01:18:55;;;;;;;2.25;2.05;;;;;;;17.65;55.89;97837.78;5053483;28;20080;-75
2022/09/15 01:21:27;;;;;;;2.50;2.30;;;;;;;17.62;56.15;97844.44;5020066;28;20072;-75
2022/09/15 01:24:32;;;;;;;2.67;2.10;;;;;;;17.72;56.05;97841.09;5019580;28;20091;-75
2022/09/15 01:27:10;;;;;;;2.67;2.22;;;;;;;17.66;55.98;97850.13;5036244;28;20040;-75
2022/09/15 01:29:42;;;;;;;4.05;2.47;;;;;;;17.69;55.88;97845.09;5054202;28;20152;-75
2022/09/15 01:35:14;;;;;;;3.05;2.58;;;;;;;17.76;55.88;97843.03;5022123;28;20098;-75
2022/09/15 01:37:45;;;;;;;2.60;2.40;;;;;;;17.70;55.68;97851.25;5035992;28;20087;-75
2022/09/15 01:40:12;;;;;;;3.58;2.50;;;;;;;17.61;55.84;97848.19;5036158;28;20048;-75
2022/09/15 01:42:39;;;;;;;4.50;2.22;;;;;;;17.54;55.86;97844.06;5002957;28;20087;-75
2022/09/15 01:45:11;;;;;;;2.55;2.35;;;;;;;17.45;55.88;97832.09;5035972;28;20061;-75
2022/09/15 01:47:38;;;;;;;3.28;2.42;;;;;;;17.47;56.31;97846.06;5036147;28;20037;-75
2022/09/15 01:50:14;;;;;;;2.70;2.50;;;;;;;17.59;56.18;97847.63;5002984;28;20060;-74
2022/09/15 01:52:42;;;;;;;4.25;2.30;;;;;;;17.48;56.12;97840.47;5036004;28;20052;-74
2022/09/15 01:55:17;;;;;;;2.92;2.35;;;;;;;17.60;55.97;97851.94;5052624;28;20054;-75
2022/09/15 01:57:44;;;;;;;3.05;2.72;;;;;;;17.31;56.24;97846.88;5052649;28;20416;-74
2022/09/15 02:00:11;;;;;;;3.40;3.03;;;;;;;17.37;56.42;97849.41;5035664;28;20045;-75
2022/09/15 02:02:54;;;;;;;3.50;3.17;;;;;;;17.55;56.13;97851.03;5052333;28;20049;-74
2022/09/15 02:05:41;;;;;;;4.63;3.38;;;;;;;17.60;55.89;97849.25;5019040;28;20547;-75
2022/09/15 02:08:18;;;;;;;6.68;3.15;;;;;;;17.52;55.98;97852.34;5034821;28;20053;-75
2022/09/15 02:10:43;;;;;;;6.50;3.45;;;;;;;17.24;56.60;97851.56;5034686;28;20469;-74
2022/09/15 02:13:10;;;;;;;4.70;3.38;;;;;;;17.28;56.21;97850.03;5032273;28;20136;-75
2022/09/15 02:15:41;;;;;;;3.33;2.78;;;;;;;17.47;56.12;97846.91;5032705;28;20519;-75
2022/09/15 02:18:09;;;;;;;4.38;3.10;;;;;;;17.35;56.04;97854.19;5049182;28;20067;-75
2022/09/15 02:20:44;;;;;;;4.00;2.40;;;;;;;17.53;55.73;97848.59;5032811;28;20044;-75
2022/09/15 02:23:25;;;;;;;3.30;2.70;;;;;;;17.55;55.96;97851.03;5016275;28;20055;-75
2022/09/15 02:25:56;;;;;;;6.30;2.45;;;;;;;17.44;56.41;97847.38;5016488;28;20143;-74
2022/09/15 02:28:27;;;;;;;3.78;2.22;;;;;;;17.41;56.33;97847.84;5050558;28;20075;-75
2022/09/15 02:30:54;;;;;;;2.25;2.05;;;;;;;17.28;56.43;97845.50;5050664;28;20501;-75
2022/09/15 02:33:23;;;;;;;2.08;1.90;;;;;;;17.20;56.46;97826.31;5034047;28;20037;-74
2022/09/15 02:35:50;;;;;;;2.17;1.98;;;;;;;17.34;56.48;97839.16;5034344;28;20049;-74
2022/09/15 02:38:17;;;;;;;1.95;1.75;;;;;;;17.33;56.29;97842.88;5050709;28;20071;-75
2022/09/15 02:40:43;;;;;;;5.63;1.90;;;;;;;17.30;56.39;97839.91;5001375;28;20048;-74
2022/09/15 02:43:12;;;;;;;2.58;2.10;;;;;;;17.35;56.61;97840.78;5050566;28;20400;-74
2022/09/15 02:45:38;;;;;;;3.10;2.10;;;;;;;17.20;56.50;97826.31;5017281;28;20412;-75
2022/09/15 02:48:04;;;;;;;2.70;2.00;;;;;;;17.21;56.84;97846.69;5050240;28;20048;-75
2022/09/15 02:50:30;;;;;;;2.40;2.20;;;;;;;17.21;56.82;97854.75;5050391;28;20044;-75
2022/09/15 02:52:56;;;;;;;4.00;2.03;;;;;;;17.16;56.66;97847.44;5017272;28;20128;-76
2022/09/15 02:55:27;;;;;;;3.33;2.10;;;;;;;17.22;57.00;97845.66;5017270;28;20079;-76
2022/09/15 02:57:57;;;;;;;2.33;2.13;;;;;;;17.32;56.81;97848.50;5000994;28;20041;-75
2022/09/15 03:00:24;;;;;;;2.40;2.20;;;;;;;17.14;57.04;97846.06;5050090;28;20041;-75
2022/09/15 03:02:52;;;;;;;2.88;2.58;;;;;;;17.31;56.70;97858.44;5033682;28;20055;-76
2022/09/15 03:05:21;;;;;;;2.60;2.40;;;;;;;17.37;56.66;97856.63;5033547;28;20041;-75
2022/09/15 03:07:47;;;;;;;3.67;2.40;;;;;;;17.22;56.77;97851.81;5007137;28;1233742;-75
2022/09/15 03:10:13;;;;;;;4.55;2.28;;;;;;;17.19;56.81;97849.63;5017932;28;20052;-75
2022/09/15 03:12:44;;;;;;;4.00;2.22;;;;;;;17.05;56.94;97858.25;5050799;28;20048;-75
2022/09/15 03:15:13;;;;;;;2.53;2.33;;;;;;;17.13;57.17;97849.81;5034426;28;20044;-77
2022/09/15 03:17:40;;;;;;;2.97;2.40;;;;;;;17.09;57.29;97845.97;5034130;28;20049;-77
2022/09/15 03:20:09;;;;;;;5.45;2.75;;;;;;;17.16;57.29;97857.38;5050676;28;20446;-77
2022/09/15 03:22:35;;;;;;;4.53;3.00;;;;;;;17.06;57.27;97849.13;5033893;28;20045;-76
2022/09/15 03:25:03;;;;;;;3.55;3.17;;;;;;;17.08;57.20;97844.34;5017315;28;20052;-75
2022/09/15 03:27:31;;;;;;;3.22;2.92;;;;;;;17.14;57.31;97848.75;5034199;28;20497;-76
2022/09/15 03:29:57;;;;;;;3.92;3.55;;;;;;;17.06;57.18;97852.63;5034270;28;20061;-78
2022/09/15 03:32:23;;;;;;;4.07;3.67;;;;;;;17.07;57.15;97854.25;5017573;28;20156;-77
2022/09/15 03:34:48;;;;;;;3.75;3.42;;;;;;;17.09;57.02;97854.81;5017010;28;20074;-77
2022/09/15 03:37:15;;;;;;;4.20;3.80;;;;;;;17.11;57.04;97858.09;5017065;28;20122;-76
2022/09/15 03:39:40;;;;;;;6.53;3.90;;;;;;;17.16;57.27;97849.31;5017110;28;20382;-76
2022/09/15 03:42:06;;;;;;;4.82;3.60;;;;;;;17.08;57.09;97847.84;5033687;28;20087;-76
2022/09/15 03:44:34;;;;;;;8.10;5.47;;;;;;;17.08;57.19;97847.84;5017041;28;20106;-76
2022/09/15 03:47:02;;;;;;;4.03;3.60;;;;;;;17.25;56.78;97847.84;5049691;28;20428;-76
2022/09/15 03:49:28;;;;;;;3.53;3.22;;;;;;;17.16;56.59;97850.09;5033651;28;20045;-76
2022/09/15 03:51:54;;;;;;;3.80;3.38;;;;;;;17.10;56.81;97852.97;5017332;28;20044;-76
2022/09/15 03:54:20;;;;;;;4.90;3.42;;;;;;;17.13;56.78;97847.91;5052738;28;20057;-76
2022/09/15 03:56:47;;;;;;;3.95;3.03;;;;;;;17.14;56.56;97846.06;5024790;28;20048;-76
2022/09/15 03:59:15;;;;;;;5.28;3.40;;;;;;;17.36;56.31;97849.66;5037738;28;20076;-76
2022/09/15 04:01:41;;;;;;;7.15;3.42;;;;;;;17.23;56.58;97844.59;5050608;28;20041;-77
2022/09/15 04:04:07;;;;;;;5.28;3.10;;;;;;;17.17;56.80;97848.25;5049464;28;20041;-75
2022/09/15 04:06:32;;;;;;;3.88;2.72;;;;;;;17.05;56.61;97836.78;5016436;28;20041;-76
2022/09/15 04:09:01;;;;;;;3.90;2.60;;;;;;;17.07;56.41;97840.84;5016239;28;20052;-76
2022/09/15 04:11:27;;;;;;;2.75;2.53;;;;;;;17.10;56.66;97853.75;5033501;28;20045;-75
2022/09/15 04:13:53;;;;;;;2.80;2.28;;;;;;;17.01;56.92;97865.94;5016991;28;20080;-76
2022/09/15 04:16:22;;;;;;;3.50;2.58;;;;;;;17.19;56.72;97863.03;5016660;28;20076;-75
2022/09/15 04:18:49;;;;;;;5.53;2.45;;;;;;;17.11;57.02;97859.94;5049753;28;20063;-75
2022/09/15 04:21:17;;;;;;;2.60;2.40;;;;;;;16.99;56.81;97848.47;5049504;28;20045;-75
2022/09/15 04:23:43;;;;;;;2.85;2.55;;;;;;;16.79;57.41;97855.09;5050785;28;20553;-75
2022/09/15 04:26:18;;;;;;;5.90;2.92;;;;;;;17.18;57.04;97865.97;5016325;28;20512;-75
2022/09/15 04:28:44;;;;;;;3.65;2.83;;;;;;;16.83;57.56;97864.31;5050749;28;20053;-74
2022/09/15 04:31:13;;;;;;;3.70;2.67;;;;;;;17.00;57.54;97864.34;5016241;28;20476;-74
2022/09/15 04:33:39;;;;;;;2.80;2.40;;;;;;;16.97;57.44;97861.31;5032705;28;20045;-75
2022/09/15 04:36:12;;;;;;;3.10;2.30;;;;;;;17.06;57.17;97858.00;5000164;28;20045;-73
2022/09/15 04:38:38;;;;;;;3.92;2.30;;;;;;;16.85;57.13;97856.81;5049270;28;20451;-73
2022/09/15 04:41:04;;;;;;;2.50;2.30;;;;;;;17.11;56.85;97857.28;5032458;28;20172;-73
2022/09/15 04:43:31;;;;;;;2.35;2.13;;;;;;;17.13;56.85;97863.22;5032534;28;20037;-73
2022/09/15 04:45:57;;;;;;;3.58;2.30;;;;;;;17.00;56.88;97871.56;5000100;28;20048;-77
2022/09/15 04:48:23;;;;;;;2.30;2.10;;;;;;;17.11;56.61;97860.78;5016313;28;20040;-78
2022/09/15 04:50:49;;;;;;;1.80;1.70;;;;;;;17.11;56.46;97862.63;4999830;28;20049;-71
2022/09/15 04:53:15;;;;;;;2.25;2.05;;;;;;;17.16;56.31;97868.09;4999557;28;20072;-71
2022/09/15 04:55:41;;;;;;;2.30;2.10;;;;;;;17.09;56.51;97859.38;4999539;28;20489;-71
2022/09/15 04:58:07;;;;;;;2.13;1.98;;;;;;;17.23;56.44;97863.38;5015890;28;20052;-72
2022/09/15 05:00:40;;;;;;;2.33;2.13;;;;;;;17.32;56.25;97865.41;5024776;28;20048;-71
2022/09/15 05:03:06;;;;;;;1.95;1.70;;;;;;;17.07;56.48;97878.38;5067755;28;20416;-73
2022/09/15 05:05:33;;;;;;;2.88;2.17;;;;;;;17.15;56.48;97861.91;5034497;28;20500;-73
2022/09/15 05:07:59;;;;;;;3.95;2.60;;;;;;;17.12;56.58;97869.63;5067621;28;20052;-72
2022/09/15 05:10:25;;;;;;;3.20;2.65;;;;;;;17.15;56.55;97864.59;5067777;28;20049;-72
2022/09/15 05:12:52;;;;;;;3.05;2.33;;;;;;;17.17;56.40;97867.84;5033826;28;20056;-74
2022/09/15 05:15:18;;;;;;;4.38;2.58;;;;;;;16.72;57.25;97854.44;5034377;28;20036;-73
2022/09/15 05:17:44;;;;;;;4.43;3.38;;;;;;;16.88;57.03;97868.94;5067853;28;20047;-72
2022/09/15 05:20:09;;;;;;;4.10;3.40;;;;;;;16.88;57.35;97862.75;5034443;28;20529;-78
2022/09/15 05:22:35;;;;;;;4.78;2.92;;;;;;;16.99;56.98;97872.63;5018016;28;20138;-74
2022/09/15 05:25:01;;;;;;;3.53;3.22;;;;;;;17.04;56.75;97873.50;5050908;28;20500;-70
2022/09/15 05:27:29;;;;;;;7.00;4.45;;;;;;;17.18;56.53;97871.31;5050743;28;20041;-71
2022/09/15 05:29:55;;;;;;;5.88;3.10;;;;;;;16.96;56.73;97852.44;5067858;28;20376;-71
2022/09/15 05:32:21;;;;;;;3.05;2.58;;;;;;;17.07;56.95;97872.22;5034168;28;20044;-71
2022/09/15 05:34:47;;;;;;;5.40;2.63;;;;;;;17.03;56.96;97871.91;5034377;28;20032;-72
2022/09/15 05:37:15;;;;;;;2.47;2.28;;;;;;;17.02;56.90;97877.50;5035284;28;20127;-71
2022/09/15 05:39:41;;;;;;;2.10;1.90;;;;;;;17.03;56.95;97871.91;5033930;28;20056;-73
2022/09/15 05:42:07;;;;;;;2.47;2.00;;;;;;;17.12;56.98;97872.28;5017849;28;20041;-75
2022/09/15 05:44:33;;;;;;;2.33;2.00;;;;;;;17.17;57.21;97869.72;5016792;28;20135;-71
2022/09/15 05:46:59;;;;;;;3.40;2.25;;;;;;;17.23;56.70;97877.59;5066079;28;20036;-73
2022/09/15 05:49:25;;;;;;;2.17;1.83;;;;;;;17.24;56.75;97875.72;5016614;28;20512;-73
2022/09/15 05:51:51;;;;;;;3.05;1.60;;;;;;;17.20;56.88;97877.28;5032951;28;20036;-73
2022/09/15 05:54:17;;;;;;;2.85;1.70;;;;;;;17.24;56.68;97873.03;5034272;28;20040;-73
2022/09/15 05:56:42;;;;;;;1.60;1.50;;;;;;;17.33;56.69;97877.75;5030414;28;20044;-74
2022/09/15 05:59:08;;;;;;;3.25;1.70;;;;;;;17.45;56.16;97875.03;5052528;28;20036;-73
2022/09/15 06:01:34;;;;;;;4.57;1.55;;;;;;;17.43;56.30;97879.81;5070671;28;20049;-72
2022/09/15 06:04:00;;;;;;;3.45;1.73;;;;;;;17.42;56.31;97860.19;5019703;28;20415;-72
2022/09/15 06:06:26;;;;;;;2.28;1.60;;;;;;;17.62;56.35;97883.91;5019440;28;20492;-74
2022/09/15 06:08:56;;;;;;;6.35;1.65;;;;;;;17.88;55.95;97891.28;5019278;28;20526;-73
2022/09/15 06:11:24;;;;;;;2.13;1.40;;;;;;;17.86;55.71;97893.41;5051800;28;20496;-74
2022/09/15 06:14:00;;;;;;;2.72;1.70;;;;;;;17.78;55.97;97891.94;5053675;28;20547;-73
2022/09/15 06:16:25;;;;;;;1.73;1.63;;;;;;;17.66;56.03;97890.41;5036581;28;20055;-72
2022/09/15 06:18:52;;;;;;;5.50;4.13;;;;;;;17.77;55.71;97889.50;5020548;28;20040;-73
2022/09/15 06:21:22;;;;;;;2.83;2.00;;;;;;;17.74;55.57;97884.63;5053990;28;20412;-73
2022/09/15 06:23:52;;;;;;;2.65;2.05;;;;;;;17.91;55.46;97880.06;5035984;28;20480;-74
2022/09/15 06:26:18;;;;;;;2.30;1.90;;;;;;;17.64;55.98;97884.47;5037486;28;20040;-72
2022/09/15 06:28:58;;;;;;;2.92;1.60;;;;;;;17.90;55.75;97886.47;5037590;28;20052;-74
2022/09/15 06:31:30;;;;;;;1.98;1.80;;;;;;;17.84;55.31;97899.00;5055413;28;20052;-73
2022/09/15 06:33:56;;;;;;;3.58;1.23;;;;;;;17.57;55.76;97891.88;5056876;28;20059;-77
2022/09/15 06:36:25;;;;;;;3.47;1.98;;;;;;;17.79;55.74;97888.19;5021160;28;20036;-74
2022/09/15 06:38:51;;;;;;;2.25;1.63;;;;;;;17.76;55.26;97894.06;5037049;28;20150;-73
2022/09/15 06:41:17;;;;;;;1.60;1.48;;;;;;;17.77;55.25;97902.94;5020521;28;20420;-74
2022/09/15 06:43:43;;;;;;;4.25;1.45;;;;;;;17.84;55.39;97907.06;5037355;28;20045;-74
2022/09/15 06:46:15;;;;;;;5.18;1.67;;;;;;;18.02;54.93;97906.00;5070442;28;20123;-73
2022/09/15 06:48:41;;;;;;;1.90;1.52;;;;;;;17.79;55.24;97903.50;5020867;28;20036;-73
2022/09/15 06:51:09;;;;;;;2.10;1.63;;;;;;;17.60;55.46;97892.22;5053803;28;20405;-74
2022/09/15 06:53:37;;;;;;;2.95;1.70;;;;;;;17.75;55.57;97907.72;5037425;28;20093;-72
2022/09/15 06:56:10;;;;;;;2.40;1.73;;;;;;;17.92;55.21;97911.22;5038796;28;20557;-73
2022/09/15 06:58:38;;;;;;;2.38;1.80;;;;;;;17.88;55.32;97907.41;5064618;28;20071;-73
2022/09/15 07:01:10;;;;;;;3.08;1.58;;;;;;;17.96;55.47;97904.28;5017964;28;20137;-73
2022/09/15 07:03:37;;;;;;;2.65;1.67;;;;;;;17.82;55.61;97913.75;5053729;28;20048;-73
2022/09/15 07:06:04;;;;;;;3.40;1.42;;;;;;;17.93;55.28;97919.03;5053353;28;20094;-72
2022/09/15 07:08:30;;;;;;;2.55;1.55;;;;;;;17.90;55.16;97913.31;5035774;28;20067;-71
2022/09/15 07:10:56;;;;;;;1.80;1.60;;;;;;;17.93;54.92;97919.03;5036076;28;20041;-71
2022/09/15 07:13:22;;;;;;;1.88;1.52;;;;;;;18.05;55.06;97914.34;5032894;28;20036;-72
2022/09/15 07:15:56;;;;;;;2.10;1.30;;;;;;;18.17;54.85;97919.63;5051463;28;20037;-71
2022/09/15 07:18:23;;;;;;;2.60;1.48;;;;;;;18.22;54.71;97915.13;5032525;28;20135;-71
2022/09/15 07:20:50;;;;;;;2.03;1.30;;;;;;;18.23;54.83;97924.03;5036773;28;20389;-71
2022/09/15 07:23:17;;;;;;;1.27;1.10;;;;;;;18.36;54.32;97919.09;5012207;28;20075;-71
2022/09/15 07:25:43;;;;;;;4.43;1.40;;;;;;;18.36;54.37;97920.94;5065705;28;20037;-71
2022/09/15 07:28:16;;;;;;;2.00;1.58;;;;;;;18.68;53.88;97921.97;5014511;28;20049;-73
2022/09/15 07:30:42;;;;;;;2.80;1.20;;;;;;;18.53;53.66;97927.13;5032885;28;20072;-72
2022/09/15 07:33:11;;;;;;;1.33;1.20;;;;;;;18.37;54.03;97922.59;5031819;28;20526;-70
2022/09/15 07:35:41;;;;;;;1.50;1.40;;;;;;;18.48;53.93;97929.78;5041449;28;20045;-74
2022/09/15 07:38:06;;;;;;;3.15;1.40;;;;;;;18.13;54.34;97923.88;5032321;28;20051;-73
2022/09/15 07:40:32;;;;;;;5.43;1.38;;;;;;;18.27;54.08;97927.81;5024781;28;20045;-72
2022/09/15 07:42:58;;;;;;;1.75;1.40;;;;;;;18.39;53.69;97931.25;5049245;28;20102;-73
2022/09/15 07:45:24;;;;;;;1.48;1.38;;;;;;;18.34;53.86;97917.72;5015756;28;20834;-73
2022/09/15 07:47:50;;;;;;;2.17;1.35;;;;;;;18.38;54.11;97940.38;5032037;28;20048;-72
2022/09/15 07:50:16;;;;;;;2.35;1.60;;;;;;;18.49;53.58;97934.06;5015408;28;20041;-72
2022/09/15 07:52:42;;;;;;;3.67;1.63;;;;;;;18.50;53.37;97932.22;5031359;28;20492;-74
2022/09/15 07:55:08;;;;;;;2.67;1.70;;;;;;;18.45;53.68;97941.81;5015413;28;20041;-71
2022/09/15 07:57:34;;;;;;;1.70;1.52;;;;;;;18.41;53.84;97938.00;5014446;28;20055;-72
2022/09/15 08:00:01;;;;;;;4.90;1.50;;;;;;;18.38;53.30;97940.38;5050896;28;20063;-73
2022/09/15 08:02:26;;;;;;;2.53;1.40;;;;;;;18.23;53.63;97940.16;5060087;28;20041;-72
2022/09/15 08:04:52;;;;;;;1.80;1.55;;;;;;;18.24;53.69;97933.69;5042194;28;20044;-72
2022/09/15 08:07:18;;;;;;;2.90;1.50;;;;;;;18.14;54.09;97939.75;5030781;28;20044;-73
2022/09/15 08:09:44;;;;;;;2.92;1.60;;;;;;;18.18;53.70;97934.69;5032203;28;20581;-73
2022/09/15 08:12:10;;;;;;;2.03;1.63;;;;;;;18.14;54.13;97938.94;5049216;28;20040;-73
2022/09/15 08:14:35;;;;;;;3.65;1.90;;;;;;;18.15;54.24;97937.88;5030095;28;20091;-72
2022/09/15 08:17:03;;;;;;;6.03;1.95;;;;;;;18.29;53.87;97936.47;5032610;28;20044;-72
2022/09/15 08:19:30;;;;;;;2.30;1.40;;;;;;;18.28;53.68;97943.69;5055396;28;20048;-73
2022/09/15 08:21:56;;;;;;;2.05;1.55;;;;;;;18.30;53.81;97938.91;5005869;28;20074;-73
2022/09/15 08:24:22;;;;;;;2.72;1.35;;;;;;;18.32;53.66;97941.34;5047953;28;20041;-77
2022/09/15 08:26:48;;;;;;;2.83;1.50;;;;;;;18.52;53.55;97948.88;5048454;28;20409;-73
2022/09/15 08:29:15;;;;;;;1.20;1.10;;;;;;;18.56;52.87;97948.13;5036342;28;20048;-72
2022/09/15 08:31:41;;;;;;;4.32;1.30;;;;;;;18.51;53.06;97949.97;5055356;28;20043;-72
2022/09/15 08:34:10;;;;;;;1.48;1.20;;;;;;;18.72;52.84;97941.06;5038680;28;20044;-73
2022/09/15 08:36:38;;;;;;;2.75;1.20;;;;;;;18.57;53.50;97947.09;5088394;28;20052;-74
2022/09/15 08:39:05;;;;;;;3.80;1.70;;;;;;;18.45;53.26;97928.38;5054575;28;20044;-73
2022/09/15 08:41:43;;;;;;;1.50;1.33;;;;;;;18.71;53.27;97944.84;5038606;28;20071;-73
2022/09/15 08:44:38;;;;;;;2.90;1.30;;;;;;;18.54;53.69;97949.47;5055072;28;20566;-72
2022/09/15 08:47:16;;;;;;;2.70;1.55;;;;;;;18.67;53.05;97949.06;5054666;28;20096;-72
2022/09/15 08:49:58;;;;;;;3.35;1.80;;;;;;;18.74;53.20;97941.66;5071562;28;20560;-74
2022/09/15 08:52:34;;;;;;;2.92;2.15;;;;;;;18.43;53.10;97943.13;5088334;28;20067;-77
2022/09/15 08:55:05;;;;;;;3.20;2.08;;;;;;;18.26;53.78;97951.22;5053705;28;20067;-73
2022/09/15 08:57:31;;;;;;;1.52;1.38;;;;;;;18.09;54.28;97946.91;5055145;28;20044;-73
2022/09/15 08:59:58;;;;;;;2.95;1.70;;;;;;;18.20;53.76;97954.88;5071613;28;20047;-73
2022/09/15 09:02:54;;;;;;;1.80;1.52;;;;;;;18.32;53.35;97949.41;5071799;28;20056;-73
2022/09/15 09:05:33;;;;;;;1.80;1.40;;;;;;;18.23;53.26;97942.81;5071569;28;20055;-73
2022/09/15 09:08:16;;;;;;;2.55;1.42;;;;;;;18.34;53.81;97956.16;5054972;28;20056;-74
2022/09/15 09:10:51;;;;;;;2.35;1.60;;;;;;;18.38;53.06;97959.19;5088208;28;20047;-74
2022/09/15 09:13:20;;;;;;;2.35;1.50;;;;;;;18.03;53.45;97959.47;5037424;28;20051;-73
2022/09/15 09:15:49;;;;;;;1.48;1.30;;;;;;;17.84;53.84;97960.78;5054592;28;20044;-73
2022/09/15 09:18:45;;;;;;;1.65;1.55;;;;;;;18.24;53.13;97963.25;5088224;28;20098;-75
2022/09/15 09:21:20;;;;;;;2.65;2.10;;;;;;;18.22;53.61;97976.16;5054815;28;20052;-74
2022/09/15 09:26:35;;;;;;;2.60;1.55;;;;;;;18.30;53.00;97976.53;5358693;23;20059;-71
2022/09/15 09:29:07;;;;;;;2.70;1.42;;;;;;;18.29;53.01;97982.16;4922642;28;20070;-72
2022/09/15 09:31:34;;;;;;;1.65;1.33;;;;;;;18.05;53.37;97969.97;4923525;28;20073;-71
2022/09/15 09:34:21;;;;;;;1.80;1.70;;;;;;;18.17;53.14;97974.16;4926084;28;20093;-71
2022/09/15 09:36:53;;;;;;;2.50;1.73;;;;;;;17.97;53.48;97970.38;4943523;28;20046;-71
2022/09/15 09:39:18;;;;;;;2.20;2.00;;;;;;;17.84;53.56;97976.91;4911584;28;20202;-72
2022/09/15 09:41:44;;;;;;;3.05;1.80;;;;;;;17.74;53.98;97975.91;4911708;28;20137;-71
2022/09/15 09:44:13;;;;;;;2.05;1.73;;;;;;;17.97;53.89;97967.69;4959277;28;20400;-71
2022/09/15 09:46:39;;;;;;;3.30;2.10;;;;;;;17.94;53.76;97976.25;4911623;28;20050;-70
2022/09/15 09:49:15;;;;;;;3.05;2.00;;;;;;;18.10;53.36;97972.72;4943184;28;20138;-71
2022/09/15 09:51:55;;;;;;;3.45;2.05;;;;;;;18.18;53.33;97988.44;4958766;28;20042;-71
2022/09/15 09:54:24;;;;;;;3.65;2.47;;;;;;;17.96;53.39;97960.69;4960456;28;20046;-71
2022/09/15 09:56:51;;;;;;;2.50;1.88;;;;;;;18.01;53.38;97971.50;4943256;28;20042;-71
2022/09/15 09:59:42;;;;;;;3.72;1.88;;;;;;;18.25;53.01;97986.41;4942947;28;20516;-71
2022/09/15 10:02:17;;;;;;;;;;;;;;;18.42;52.48;97990.69;4927134;28;20070;-71
2022/09/15 10:04:54;;;;;;;3.10;1.90;;;;;;;18.30;53.70;97989.13;4942317;28;19921;-71
2022/09/15 10:07:25;;;;;;;3.95;2.00;;;;;;;18.27;53.50;97985.09;4942904;28;20050;-72
2022/09/15 10:09:55;;;;;;;3.67;2.40;;;;;;;18.14;53.27;97968.50;4910997;28;20060;-71
2022/09/15 10:12:33;;;;;;;4.30;2.20;;;;;;;18.30;53.28;97981.91;4910886;28;20043;-71
2022/09/15 10:15:03;;;;;;;3.88;2.22;;;;;;;18.29;54.02;97974.91;4943610;28;20057;-71
2022/09/15 10:17:43;;;;;;;3.47;2.20;;;;;;;18.62;53.24;97998.22;4958394;28;20090;-72
2022/09/15 10:20:31;;;;;;;2.33;1.88;;;;;;;18.77;52.78;98000.31;4958595;28;20109;-71
2022/09/15 10:23:26;;;;;;;2.33;1.92;;;;;;;18.78;52.47;97997.38;4957746;28;20055;-71
2022/09/15 10:25:55;;;;;;;3.20;2.00;;;;;;;18.85;52.50;98000.66;4918600;28;20133;-75
2022/09/15 10:28:24;;;;;;;2.40;2.20;;;;;;;18.84;52.31;98009.81;4958803;28;20376;-71
2022/09/15 10:31:12;;;;;;;2.42;2.05;;;;;;;18.97;51.44;97971.78;4977962;28;20046;-72
2022/09/15 10:33:43;;;;;;;2.38;2.10;;;;;;;19.02;51.67;98004.13;4945640;28;20368;-71
2022/09/15 10:36:16;;;;;;;2.45;2.10;;;;;;;19.13;52.01;97999.66;4977250;28;20593;-71
2022/09/15 10:38:47;;;;;;;3.67;2.50;;;;;;;19.20;51.55;98009.19;4945286;28;20558;-71
2022/09/15 10:41:28;;;;;;;5.13;2.63;;;;;;;19.04;51.47;97982.34;4977284;28;20042;-71
2022/09/15 10:44:02;;;;;;;2.25;2.05;;;;;;;19.03;51.63;98007.63;4944502;28;20104;-71
2022/09/15 10:46:45;;;;;;;2.75;2.40;;;;;;;19.21;51.84;98007.28;4961842;28;20109;-72
2022/09/15 10:49:55;;;;;;;3.53;2.65;;;;;;;19.10;51.59;98008.25;4946725;28;20054;-72
2022/09/15 10:52:55;;;;;;;4.95;4.35;;;;;;;19.04;51.62;98011.94;4945970;28;20042;-72
2022/09/15 10:55:40;;;;;;;3.70;3.35;;;;;;;18.93;52.34;98007.53;4945542;28;20046;-72
2022/09/15 10:58:26;;;;;;;3.35;2.70;;;;;;;19.00;52.27;98017.03;4976708;28;20157;-75
2022/09/15 11:00:58;;;;;;;5.88;2.70;;;;;;;18.74;52.93;98012.41;4944831;28;20511;-73
2022/09/15 11:03:57;;;;;;;5.35;3.40;;;;;;;18.65;52.62;98015.75;4961317;28;20101;-72
2022/09/15 11:06:40;;;;;;;8.43;3.50;;;;;;;17.93;53.95;98018.41;4944736;28;20050;-72
2022/09/15 11:09:24;;;;;;;6.50;3.63;;;;;;;17.52;55.03;98023.31;4977962;28;20065;-71
2022/09/15 11:12:09;;;;;;;6.45;3.70;;;;;;;17.99;54.16;98003.19;4959255;28;20049;-74
2022/09/15 11:14:50;;;;;;;5.95;3.80;;;;;;;18.03;53.91;98015.06;4945166;28;20587;-71
2022/09/15 11:17:49;;;;;;;5.18;3.58;;;;;;;17.90;54.43;98031.50;4949132;28;20069;-73
2022/09/15 11:20:35;;;;;;;5.88;3.90;;;;;;;17.55;54.87;98025.50;4944218;28;20077;-81
2022/09/15 11:23:03;;;;;;;4.75;3.80;;;;;;;17.63;54.76;98022.44;4960311;28;20128;-73
2022/09/15 11:25:31;;;;;;;6.10;3.17;;;;;;;17.98;54.37;98031.91;4956323;28;20058;-73
2022/09/15 11:28:14;;;;;;;7.57;3.67;;;;;;;18.12;53.80;98041.28;4956813;28;20054;-73
2022/09/15 11:30:54;;;;;;;7.28;3.60;;;;;;;18.19;53.76;98033.03;4941193;28;20102;-74
2022/09/15 11:33:52;;;;;;;3.85;3.13;;;;;;;17.83;54.96;98030.84;4957375;28;20046;-72
2022/09/15 11:36:27;;;;;;;3.63;3.10;;;;;;;18.09;54.58;98049.00;4944297;28;20062;-74
2022/09/15 11:39:08;;;;;;;6.53;3.10;;;;;;;17.98;54.27;98039.16;4939697;28;20066;-73
2022/09/15 11:41:43;;;;;;;7.53;3.30;;;;;;;18.04;54.46;98043.53;4956302;28;20058;-75
2022/09/15 11:44:34;;;;;;;5.20;3.08;;;;;;;17.88;55.28;98044.38;4940394;28;20141;-73
2022/09/15 11:47:03;;;;;;;5.13;3.08;;;;;;;17.94;55.17;98046.88;4939855;28;20114;-73
2022/09/15 11:49:38;;;;;;;3.72;3.25;;;;;;;17.63;55.91;98044.75;4939161;28;20494;-72
2022/09/15 11:52:28;;;;;;;4.82;3.05;;;;;;;18.03;55.80;98050.81;4955143;28;20129;-73
2022/09/15 11:55:14;;;;;;;5.03;2.93;;;;;;;18.26;54.16;98052.50;4952662;28;20161;-73
2022/09/15 11:58:19;;;;;;;3.60;2.90;;;;;;;18.35;53.82;98049.19;4954991;28;20492;-71